Time;durP1;ratioP1;P1;durP2;ratioP2;P2;SDS_P1;SDS_P2;PMS_P1;PMS_P2;Temp;Humidity;BMP_temperature;BMP_pressure;BME280_temperature;BME280_humidity;BME280_pressure;Samples;Min_cycle;Max_cycle;Signal;HPM_P1;HPM_P2
2022/11/28 00:00:27;;;;;;;17.48;8.18;;;;;;;4.28;82.13;98289.91;5003533;28;20050;-80
2022/11/28 00:02:53;;;;;;;15.35;7.97;;;;;;;4.30;82.13;98295.75;5006132;28;20085;-80
2022/11/28 00:05:18;;;;;;;16.92;8.95;;;;;;;4.24;81.87;98293.75;5004409;28;20782;-81
2022/11/28 00:07:44;;;;;;;18.23;8.98;;;;;;;4.30;82.15;98303.53;5000778;28;20031;-81
2022/11/28 00:10:10;;;;;;;18.67;9.10;;;;;;;4.38;82.24;98289.75;5003728;28;20551;-80
2022/11/28 00:12:36;;;;;;;22.17;9.85;;;;;;;4.40;81.84;98278.25;5003412;28;20038;-80
2022/11/28 00:15:04;;;;;;;16.88;7.85;;;;;;;4.41;82.46;98269.50;5003143;28;20092;-80
2022/11/28 00:17:30;;;;;;;18.20;8.23;;;;;;;4.40;81.29;98269.66;5002539;28;20038;-81
2022/11/28 00:19:56;;;;;;;18.33;9.30;;;;;;;4.32;81.54;98274.81;5002340;28;20038;-80
2022/11/28 00:22:22;;;;;;;17.17;8.75;;;;;;;4.34;81.53;98265.91;5003453;28;20034;-80
2022/11/28 00:24:47;;;;;;;20.80;9.30;;;;;;;4.35;81.99;98275.31;5003667;28;20033;-81
2022/11/28 00:27:13;;;;;;;19.75;8.90;;;;;;;4.33;81.46;98272.06;5004933;28;20029;-81
2022/11/28 00:29:39;;;;;;;18.02;9.23;;;;;;;4.32;81.56;98270.44;5002060;28;20116;-81
2022/11/28 00:32:05;;;;;;;18.23;8.77;;;;;;;4.38;82.79;98262.03;5003308;28;20487;-80
2022/11/28 00:34:31;;;;;;;19.02;9.07;;;;;;;4.41;82.42;98253.09;5001660;28;20048;-80
2022/11/28 00:36:57;;;;;;;22.02;9.18;;;;;;;4.48;82.81;98251.50;5002784;28;20030;-80
2022/11/28 00:39:22;;;;;;;17.35;9.05;;;;;;;4.55;82.54;98240.31;5001293;28;20030;-80
2022/11/28 00:41:48;;;;;;;17.38;8.93;;;;;;;4.57;82.31;98228.00;5002509;28;20045;-80
2022/11/28 00:44:14;;;;;;;18.63;8.90;;;;;;;4.55;82.02;98222.13;4999245;28;20068;-80
2022/11/28 00:46:41;;;;;;;18.13;8.30;;;;;;;4.55;82.03;98218.72;5000672;28;20037;-80
2022/11/28 00:49:07;;;;;;;19.17;8.82;;;;;;;4.56;81.53;98210.81;5002340;28;20362;-80
2022/11/28 00:51:34;;;;;;;18.50;8.70;;;;;;;4.48;81.19;98192.56;5001384;28;20116;-80
2022/11/28 00:54:02;;;;;;;18.48;9.13;;;;;;;4.42;81.26;98188.00;5003274;28;20064;-80
2022/11/28 00:56:32;;;;;;;16.55;8.88;;;;;;;4.23;80.81;98186.50;5003447;28;20497;-80
2022/11/28 00:58:59;;;;;;;19.83;9.53;;;;;;;4.15;81.34;98198.66;5003286;28;20450;-80
2022/11/28 01:01:29;;;;;;;21.42;9.60;;;;;;;4.03;81.47;98203.31;4983343;28;20041;-80
2022/11/28 01:03:59;;;;;;;17.05;9.43;;;;;;;4.05;83.12;98197.94;5002994;28;20038;-80
2022/11/28 01:06:31;;;;;;;17.30;8.88;;;;;;;3.98;82.45;98214.13;5018512;28;20034;-80
2022/11/28 01:09:00;;;;;;;19.25;9.35;;;;;;;3.95;82.96;98198.88;5003511;28;20047;-81
2022/11/28 01:11:27;;;;;;;19.45;8.77;;;;;;;4.08;83.55;98206.25;5003844;28;20026;-80
2022/11/28 01:13:56;;;;;;;18.92;9.27;;;;;;;4.13;83.42;98191.00;5003470;28;20124;-80
2022/11/28 01:16:22;;;;;;;18.70;10.02;;;;;;;4.17;82.71;98194.09;5000674;28;20495;-80
2022/11/28 01:18:48;;;;;;;17.17;9.20;;;;;;;4.17;82.63;98194.09;5001487;28;20097;-80
2022/11/28 01:21:14;;;;;;;23.95;9.98;;;;;;;4.15;82.51;98180.47;5001637;28;20044;-80
2022/11/28 01:23:39;;;;;;;18.63;9.27;;;;;;;4.19;83.26;98174.78;5006395;28;20026;-80
2022/11/28 01:26:08;;;;;;;18.45;9.30;;;;;;;4.21;82.91;98161.69;5002134;28;20037;-80
2022/11/28 01:28:35;;;;;;;21.92;10.02;;;;;;;4.11;82.69;98150.59;5002284;28;20077;-80
2022/11/28 01:31:07;;;;;;;20.52;9.55;;;;;;;4.02;82.69;98144.59;5004556;28;20052;-80
2022/11/28 01:33:32;;;;;;;17.98;8.95;;;;;;;3.84;83.08;98149.88;5004980;28;20437;-80
2022/11/28 01:35:59;;;;;;;19.30;9.25;;;;;;;3.71;83.73;98147.66;5000826;28;20120;-80
2022/11/28 01:38:26;;;;;;;16.02;7.57;;;;;;;3.79;83.73;98154.69;5000524;28;20042;-80
2022/11/28 01:40:53;;;;;;;17.92;9.07;;;;;;;3.83;83.58;98139.63;4999694;28;20417;-80
2022/11/28 01:43:18;;;;;;;20.40;9.23;;;;;;;3.91;83.88;98134.47;5017629;28;21310;-80
2022/11/28 01:45:44;;;;;;;18.65;8.65;;;;;;;3.94;83.47;98118.59;4998870;28;20045;-80
2022/11/28 01:48:19;;;;;;;19.85;8.38;;;;;;;3.86;83.42;98108.19;5002907;28;20037;-80
2022/11/28 01:50:49;;;;;;;15.40;8.57;;;;;;;3.74;84.09;98111.06;5002295;28;20034;-80
2022/11/28 01:53:15;;;;;;;18.00;8.88;;;;;;;3.70;84.77;98117.50;5001537;28;20046;-80
2022/11/28 01:56:25;;;;;;;20.15;9.45;;;;;;;3.70;85.03;98109.72;5002516;28;20136;-80
2022/11/28 01:59:01;;;;;;;19.40;9.25;;;;;;;3.68;84.82;98098.72;4983413;28;20200;-80
2022/11/28 02:01:27;;;;;;;16.13;8.70;;;;;;;3.68;84.88;98090.13;5002037;28;20091;-80
2022/11/28 02:03:54;;;;;;;17.65;8.50;;;;;;;3.60;84.99;98082.28;5001998;28;20150;-79
2022/11/28 02:06:23;;;;;;;18.60;8.77;;;;;;;3.61;85.03;98081.34;5003033;28;20105;-80
2022/11/28 02:08:53;;;;;;;19.63;9.07;;;;;;;3.59;85.28;98091.03;5000499;28;20088;-80
2022/11/28 02:11:40;;;;;;;19.25;8.63;;;;;;;3.56;85.49;98096.56;5004387;28;20038;-80
2022/11/28 02:14:24;;;;;;;16.40;8.20;;;;;;;3.59;85.60;98091.84;5000669;28;20435;-80
2022/11/28 02:17:37;;;;;;;17.52;8.68;;;;;;;3.73;85.20;98106.84;5001865;28;20038;-80
2022/11/28 02:20:36;;;;;;;17.00;9.00;;;;;;;3.84;85.38;98104.91;5002229;28;20504;-81
2022/11/28 02:23:07;;;;;;;18.42;8.35;;;;;;;3.90;84.85;98110.31;5001089;28;20036;-80
2022/11/28 02:25:44;;;;;;;;;;;;;;;3.96;84.71;98099.31;5002348;28;20042;-80
2022/11/28 02:28:47;;;;;;;13.35;7.88;;;;;;;3.92;84.51;98084.22;5006119;28;19920;-79
2022/11/28 02:31:49;;;;;;;17.58;8.82;;;;;;;3.93;84.70;98076.25;5002187;28;20043;-79
2022/11/28 02:34:50;;;;;;;13.98;7.15;;;;;;;3.74;84.74;98050.59;5000898;28;20026;-80
2022/11/28 02:38:00;;;;;;;18.38;9.07;;;;;;;3.64;85.30;98042.91;4990607;28;20548;-80
2022/11/28 02:40:48;;;;;;;19.73;10.00;;;;;;;3.57;86.37;98060.06;4991452;28;20046;-80
2022/11/28 02:43:32;;;;;;;17.55;8.32;;;;;;;3.57;86.68;98062.69;5001926;28;20037;-80
2022/11/28 02:46:45;;;;;;;17.33;7.72;;;;;;;3.52;86.29;98048.53;5002387;28;20049;-80
2022/11/28 02:49:33;;;;;;;15.32;8.00;;;;;;;3.65;86.52;98064.47;5005601;28;20533;-80
2022/11/28 02:52:11;;;;;;;17.88;9.45;;;;;;;3.68;85.94;98048.63;5002735;28;20052;-80
2022/11/28 02:54:40;;;;;;;15.23;8.63;;;;;;;3.61;86.28;98037.25;5006823;28;20042;-80
2022/11/28 02:57:07;;;;;;;16.92;8.73;;;;;;;3.72;86.52;98029.19;5007020;28;20040;-80
2022/11/28 02:59:35;;;;;;;18.42;8.93;;;;;;;3.74;86.04;98033.22;5002087;28;20044;-80
2022/11/28 03:02:03;;;;;;;16.73;8.77;;;;;;;3.68;86.08;98033.88;5004626;28;20085;-80
2022/11/28 03:04:55;;;;;;;16.75;8.48;;;;;;;3.75;86.36;98054.78;5005930;28;20155;-80
2022/11/28 03:07:42;;;;;;;17.13;8.85;;;;;;;3.80;86.06;98057.72;5020205;28;20092;-80
2022/11/28 03:10:32;;;;;;;16.65;8.57;;;;;;;3.89;85.74;98051.59;5005445;28;20038;-80
2022/11/28 03:13:51;;;;;;;17.17;9.05;;;;;;;3.89;85.31;98043.00;5009046;28;20030;-80
2022/11/28 03:16:33;;;;;;;18.92;8.68;;;;;;;3.97;85.32;98037.84;4999317;28;20107;-80
2022/11/28 03:19:41;;;;;;;16.02;8.00;;;;;;;3.94;85.03;98023.38;5006546;28;20405;-80
2022/11/28 03:22:47;;;;;;;15.75;8.30;;;;;;;3.93;85.27;98011.38;5003385;28;20026;-80
2022/11/28 03:25:57;;;;;;;15.85;8.38;;;;;;;3.97;84.84;97999.72;5003144;28;20041;-80
2022/11/28 03:28:36;;;;;;;15.25;8.32;;;;;;;3.94;84.63;98007.00;4985778;28;20437;-80
2022/11/28 03:31:09;;;;;;;18.80;9.27;;;;;;;3.94;84.87;98013.00;5004515;28;20046;-79
2022/11/28 03:33:38;;;;;;;18.92;8.75;;;;;;;4.05;84.92;98008.50;5019413;28;20044;-80
2022/11/28 03:36:13;;;;;;;19.55;8.32;;;;;;;4.03;84.46;98001.69;5003300;28;20026;-80
2022/11/28 03:38:49;;;;;;;18.33;8.60;;;;;;;4.06;84.29;98007.50;5004387;28;20042;-80
2022/11/28 03:41:28;;;;;;;18.67;9.13;;;;;;;4.15;84.72;97997.00;5004546;28;20496;-81
2022/11/28 03:43:58;;;;;;;14.65;8.63;;;;;;;4.24;84.00;98002.97;5005216;28;20393;-80
2022/11/28 03:46:36;;;;;;;14.32;7.45;;;;;;;4.25;83.92;98004.59;5001684;28;20398;-80
2022/11/28 03:49:08;;;;;;;19.88;8.85;;;;;;;4.24;84.19;98000.38;5004280;28;20029;-80
2022/11/28 03:52:06;;;;;;;21.02;9.10;;;;;;;4.38;83.76;98002.34;5001756;28;20033;-80
2022/11/28 03:54:34;;;;;;;18.67;8.80;;;;;;;4.33;82.28;97998.63;5004419;28;20044;-81
2022/11/28 03:57:11;;;;;;;14.63;8.70;;;;;;;4.24;83.44;98015.97;5003334;28;20030;-80
2022/11/28 03:59:45;;;;;;;15.13;8.27;;;;;;;4.34;83.44;98019.22;5003894;28;20567;-80
2022/11/28 04:02:38;;;;;;;16.27;9.30;;;;;;;4.39;82.57;98008.34;5005105;28;20033;-80
2022/11/28 04:05:18;;;;;;;17.55;8.48;;;;;;;4.42;82.38;98021.81;5006600;28;20121;-80
2022/11/28 04:07:51;;;;;;;14.90;8.25;;;;;;;4.43;83.26;98020.84;5001688;28;20080;-80
2022/11/28 04:10:49;;;;;;;14.13;8.20;;;;;;;4.54;84.01;98020.50;5005044;28;20036;-80
2022/11/28 04:13:24;;;;;;;18.48;8.60;;;;;;;4.65;84.29;97995.19;5005525;28;20065;-80
2022/11/28 04:16:33;;;;;;;17.33;9.00;;;;;;;4.68;83.73;97981.84;5003996;28;20414;-81
2022/11/28 04:19:07;;;;;;;16.17;7.72;;;;;;;4.73;83.75;97972.59;5000943;28;20531;-80
2022/11/28 04:21:50;;;;;;;15.63;8.88;;;;;;;4.72;82.81;97976.16;5003633;28;20029;-80
2022/11/28 04:24:26;;;;;;;16.42;8.73;;;;;;;4.69;81.96;97975.72;4987786;28;20043;-80
2022/11/28 04:26:59;;;;;;;18.27;8.48;;;;;;;4.72;82.55;97970.97;5003470;28;20053;-81
2022/11/28 04:29:33;;;;;;;15.57;8.18;;;;;;;4.75;81.78;97978.44;5002161;28;20121;-80
2022/11/28 04:32:00;;;;;;;18.48;9.13;;;;;;;4.64;81.64;97983.19;4999493;28;20191;-80
2022/11/28 04:34:30;;;;;;;15.23;8.30;;;;;;;4.56;82.01;97990.00;5002146;28;20528;-80
2022/11/28 04:37:00;;;;;;;16.95;8.60;;;;;;;4.47;81.68;97984.97;5003354;28;20045;-80
2022/11/28 04:39:29;;;;;;;14.57;7.72;;;;;;;4.39;81.53;97996.19;5003881;28;20128;-80
2022/11/28 04:42:09;;;;;;;17.38;8.60;;;;;;;4.37;81.77;97995.50;5000824;28;20037;-80
2022/11/28 04:44:46;;;;;;;16.63;9.25;;;;;;;4.34;81.85;98003.66;4997426;28;20095;-80
2022/11/28 04:47:12;;;;;;;13.77;6.82;;;;;;;4.30;81.54;98004.94;5003266;28;20042;-80
2022/11/28 04:49:38;;;;;;;15.40;8.43;;;;;;;4.16;82.57;98011.59;5003437;28;20033;-80
2022/11/28 04:52:34;;;;;;;18.25;9.18;;;;;;;4.16;83.67;98015.97;5004104;28;20106;-81
2022/11/28 04:55:30;;;;;;;16.13;8.07;;;;;;;4.00;83.85;98024.53;5000984;28;20029;-80
2022/11/28 04:58:13;;;;;;;16.45;8.20;;;;;;;4.04;83.98;98018.06;5001375;28;20489;-80
2022/11/28 05:00:40;;;;;;;15.00;8.63;;;;;;;4.00;83.80;98016.75;5000755;28;20042;-80
2022/11/28 05:03:08;;;;;;;17.63;8.70;;;;;;;3.95;83.53;98006.03;5002567;28;20048;-80
2022/11/28 05:05:50;;;;;;;18.50;9.25;;;;;;;3.99;83.97;98007.34;5001756;28;20046;-80
2022/11/28 05:08:17;;;;;;;18.05;9.38;;;;;;;3.99;83.49;98007.34;5003281;28;20069;-80
2022/11/28 05:10:43;;;;;;;18.98;10.05;;;;;;;4.07;83.88;97990.97;5001979;28;20129;-80
2022/11/28 05:13:09;;;;;;;24.95;10.65;;;;;;;4.07;83.23;98001.34;5001510;28;20030;-80
2022/11/28 05:15:35;;;;;;;20.13;10.05;;;;;;;4.11;83.13;97976.69;5018338;28;20145;-80
2022/11/28 05:18:01;;;;;;;18.98;10.35;;;;;;;4.06;83.44;97968.59;5001814;28;20029;-80
2022/11/28 05:20:27;;;;;;;20.92;10.35;;;;;;;4.05;83.81;97946.19;5003003;28;20037;-80
2022/11/28 05:22:52;;;;;;;18.02;9.32;;;;;;;3.99;83.47;97945.06;5004289;28;20112;-80
2022/11/28 05:25:18;;;;;;;21.75;10.95;;;;;;;4.03;84.11;97928.19;5002687;28;20168;-80
2022/11/28 05:27:43;;;;;;;18.40;8.55;;;;;;;3.92;83.95;97931.94;5000890;28;20662;-80
2022/11/28 05:30:10;;;;;;;21.17;10.18;;;;;;;3.87;84.16;97941.97;4999476;28;20053;-80
2022/11/28 05:32:36;;;;;;;22.40;10.43;;;;;;;3.95;84.66;97946.34;5002064;28;20643;-80
2022/11/28 05:35:03;;;;;;;18.40;9.25;;;;;;;3.96;84.98;97889.13;5003589;28;20041;-79
2022/11/28 05:37:29;;;;;;;16.13;8.80;;;;;;;3.94;84.09;97893.63;5001886;28;20092;-79
2022/11/28 05:39:54;;;;;;;19.35;9.60;;;;;;;3.92;84.24;97890.41;5000243;28;20339;-79
2022/11/28 05:42:20;;;;;;;18.83;10.02;;;;;;;3.78;84.64;97888.47;5001760;28;20060;-79
2022/11/28 05:44:49;;;;;;;21.70;10.10;;;;;;;3.84;84.74;97902.56;4999339;28;20129;-80
2022/11/28 05:47:14;;;;;;;15.82;8.20;;;;;;;3.73;84.55;97901.09;5001614;28;20026;-80
2022/11/28 05:49:41;;;;;;;17.17;8.80;;;;;;;3.83;84.41;97899.16;5002252;28;20048;-80
2022/11/28 05:52:06;;;;;;;19.75;9.07;;;;;;;3.87;84.25;97899.66;5000673;28;20114;-79
2022/11/28 05:54:32;;;;;;;15.60;8.38;;;;;;;3.81;83.96;97900.28;5001550;28;20117;-80
2022/11/28 05:56:57;;;;;;;17.98;9.45;;;;;;;3.91;83.55;97906.94;5001099;28;20033;-80
2022/11/28 05:59:23;;;;;;;18.65;9.20;;;;;;;3.93;83.82;97912.78;4984550;28;20030;-80
2022/11/28 06:01:49;;;;;;;20.45;11.43;;;;;;;3.97;84.70;97913.28;5001511;28;20046;-81
2022/11/28 06:04:14;;;;;;;19.55;10.00;;;;;;;4.00;83.54;97895.59;5002174;28;20041;-80
2022/11/28 06:06:39;;;;;;;18.05;9.85;;;;;;;4.05;83.28;97907.28;5001912;28;20037;-80
2022/11/28 06:09:06;;;;;;;19.40;10.48;;;;;;;3.91;83.68;97917.34;5000419;28;20030;-80
2022/11/28 06:11:33;;;;;;;17.25;9.60;;;;;;;4.01;83.54;97924.94;5002065;28;20118;-80
2022/11/28 06:13:59;;;;;;;17.27;8.88;;;;;;;3.98;83.44;97951.22;5001740;28;20398;-79
2022/11/28 06:16:28;;;;;;;19.88;9.82;;;;;;;3.85;83.88;97976.84;4995270;28;20838;-80
2022/11/28 06:18:58;;;;;;;17.50;9.45;;;;;;;3.85;84.07;97943.91;5001984;28;20040;-81
2022/11/28 06:21:24;;;;;;;20.00;10.25;;;;;;;3.95;83.65;97941.97;5002898;28;20042;-81
2022/11/28 06:23:51;;;;;;;16.23;9.07;;;;;;;4.02;83.84;97927.41;5004126;28;20042;-80
2022/11/28 06:26:23;;;;;;;19.17;9.75;;;;;;;4.13;83.33;97935.81;5004104;28;20049;-81
2022/11/28 06:28:49;;;;;;;19.70;10.00;;;;;;;4.07;82.74;97939.06;5003509;28;20665;-80
2022/11/28 06:31:22;;;;;;;18.95;9.82;;;;;;;4.20;83.97;97944.59;5004157;28;20073;-80
2022/11/28 06:33:48;;;;;;;17.58;9.60;;;;;;;4.12;82.33;97963.56;5004663;28;20048;-81
2022/11/28 06:36:16;;;;;;;19.00;10.13;;;;;;;4.21;82.88;97941.03;5004619;28;20041;-80
2022/11/28 06:38:42;;;;;;;15.65;8.40;;;;;;;4.23;82.20;97939.88;5002648;28;20135;-81
2022/11/28 06:41:13;;;;;;;19.63;9.85;;;;;;;4.16;81.54;97943.28;5003665;28;20113;-81
2022/11/28 06:43:39;;;;;;;19.00;10.27;;;;;;;4.24;81.91;97932.88;5004012;28;20385;-81
2022/11/28 06:46:10;;;;;;;18.65;10.20;;;;;;;4.20;81.48;97935.03;4999464;28;20040;-81
2022/11/28 06:48:36;;;;;;;19.08;9.90;;;;;;;4.34;81.58;97936.13;5004915;28;20131;-81
2022/11/28 06:51:05;;;;;;;19.80;10.25;;;;;;;4.37;81.33;97930.59;5002029;28;20069;-81
2022/11/28 06:53:32;;;;;;;18.10;9.48;;;;;;;4.40;80.95;97935.47;5003134;28;20042;-81
2022/11/28 06:56:02;;;;;;;18.98;9.63;;;;;;;4.31;81.58;97931.25;5003599;28;20046;-81
2022/11/28 06:58:28;;;;;;;23.63;10.70;;;;;;;4.17;81.32;97917.16;5004726;28;20042;-81
2022/11/28 07:00:53;;;;;;;17.45;9.88;;;;;;;4.32;81.60;97927.72;5002469;28;20045;-81
2022/11/28 07:03:19;;;;;;;17.52;9.38;;;;;;;4.34;81.47;97922.34;5004591;28;20443;-81
2022/11/28 07:05:44;;;;;;;19.23;9.80;;;;;;;4.28;81.20;97903.03;5004380;28;20037;-80
2022/11/28 07:08:10;;;;;;;16.95;9.18;;;;;;;4.21;80.69;97915.88;4999908;28;20033;-80
2022/11/28 07:10:35;;;;;;;17.35;9.32;;;;;;;4.14;81.57;97940.88;5004284;28;20026;-80
2022/11/28 07:13:01;;;;;;;18.55;9.48;;;;;;;4.15;82.13;97937.28;5003262;28;20046;-81
2022/11/28 07:15:27;;;;;;;18.67;9.68;;;;;;;4.22;82.49;97927.06;5004190;28;20441;-80
2022/11/28 07:17:53;;;;;;;18.27;9.48;;;;;;;4.21;81.65;97930.63;5003093;28;20034;-80
2022/11/28 07:20:19;;;;;;;19.30;9.77;;;;;;;4.24;81.80;97915.53;5005086;28;20400;-81
2022/11/28 07:22:47;;;;;;;20.05;9.85;;;;;;;4.25;80.89;97916.34;5002198;28;20038;-80
2022/11/28 07:25:16;;;;;;;14.18;8.77;;;;;;;4.26;80.88;97907.59;5004062;28;20041;-80
2022/11/28 07:27:42;;;;;;;17.70;9.27;;;;;;;4.25;81.23;97911.13;5003426;28;20038;-80
2022/11/28 07:30:11;;;;;;;16.98;9.68;;;;;;;4.30;81.18;97919.25;5001650;28;20053;-81
2022/11/28 07:32:40;;;;;;;22.48;12.15;;;;;;;4.20;80.84;97932.44;5002991;28;20037;-80
2022/11/28 07:35:07;;;;;;;20.33;11.45;;;;;;;4.23;81.05;97944.25;5001129;28;20030;-80
2022/11/28 07:37:33;;;;;;;32.65;17.58;;;;;;;4.24;80.87;97940.69;5001796;28;20477;-81
2022/11/28 07:39:59;;;;;;;22.60;13.82;;;;;;;4.29;81.02;97946.19;5003073;28;20038;-80
2022/11/28 07:42:26;;;;;;;18.70;9.50;;;;;;;4.31;81.02;97946.84;5004040;28;20038;-81
2022/11/28 07:44:52;;;;;;;18.08;10.40;;;;;;;4.40;80.88;97961.44;4997652;28;20493;-81
2022/11/28 07:47:18;;;;;;;18.13;9.68;;;;;;;4.38;81.02;97962.56;5001954;28;20038;-80
2022/11/28 07:49:44;;;;;;;22.77;10.60;;;;;;;4.34;80.11;97967.28;5001284;28;20069;-80
2022/11/28 07:52:10;;;;;;;18.25;10.65;;;;;;;4.42;80.86;97967.28;5001122;28;20486;-80
2022/11/28 07:54:36;;;;;;;19.77;10.13;;;;;;;4.40;80.62;97950.25;5000851;28;20052;-81
2022/11/28 07:57:01;;;;;;;19.50;9.85;;;;;;;4.46;80.53;97954.78;5003089;28;20034;-80
2022/11/28 07:59:27;;;;;;;18.73;10.00;;;;;;;4.56;80.80;97940.66;5001848;28;20052;-81
2022/11/28 08:01:52;;;;;;;17.98;10.10;;;;;;;4.45;80.07;97937.59;5001612;28;20037;-80
2022/11/28 08:04:18;;;;;;;18.70;9.95;;;;;;;4.49;79.72;97934.47;5000199;28;20160;-80
2022/11/28 08:06:44;;;;;;;19.00;10.80;;;;;;;4.47;80.41;97931.25;5002918;28;20043;-79
2022/11/28 08:09:10;;;;;;;20.20;10.35;;;;;;;4.36;80.34;97931.59;4999248;28;20034;-80
2022/11/28 08:11:37;;;;;;;16.80;8.68;;;;;;;4.47;80.42;97949.44;5002699;28;20038;-80
2022/11/28 08:14:04;;;;;;;16.40;9.57;;;;;;;4.60;80.74;97953.31;5004336;28;20481;-80
2022/11/28 08:16:30;;;;;;;17.73;9.52;;;;;;;4.66;79.72;97955.25;5000676;28;20037;-80
2022/11/28 08:19:00;;;;;;;15.98;9.27;;;;;;;4.73;80.05;97959.59;5004151;28;20041;-80
2022/11/28 08:21:30;;;;;;;16.65;9.15;;;;;;;4.78;79.67;97954.72;5004500;28;20586;-80
2022/11/28 08:23:59;;;;;;;14.70;8.63;;;;;;;4.76;79.17;97950.69;4997039;28;20033;-80
2022/11/28 08:26:28;;;;;;;14.95;8.63;;;;;;;4.78;79.01;97948.72;5016937;28;20065;-79
2022/11/28 08:28:54;;;;;;;15.80;9.15;;;;;;;4.72;79.58;97945.00;5002189;28;20048;-80
2022/11/28 08:31:25;;;;;;;15.98;9.38;;;;;;;4.70;79.36;97939.16;5001830;28;20133;-80
2022/11/28 08:33:53;;;;;;;16.50;9.70;;;;;;;4.77;79.34;97944.50;4997066;28;20133;-80
2022/11/28 08:36:20;;;;;;;14.55;8.43;;;;;;;4.82;78.99;97940.44;5002883;28;20046;-80
2022/11/28 08:38:47;;;;;;;16.52;8.95;;;;;;;4.84;78.55;97942.84;5001460;28;20038;-80
2022/11/28 08:41:18;;;;;;;15.57;8.75;;;;;;;4.89;78.56;97945.78;5002872;28;20482;-80
2022/11/28 08:43:44;;;;;;;15.75;8.55;;;;;;;4.98;79.00;97938.78;4999835;28;20056;-80
2022/11/28 08:46:14;;;;;;;16.90;9.35;;;;;;;5.03;78.47;97952.84;4997149;28;20574;-80
2022/11/28 08:48:40;;;;;;;17.05;10.00;;;;;;;5.02;78.01;97938.25;5000493;28;20038;-80
2022/11/28 08:51:13;;;;;;;24.95;17.00;;;;;;;5.02;78.03;97935.66;4998532;28;20394;-80
2022/11/28 08:53:39;;;;;;;19.55;10.50;;;;;;;5.09;76.94;97947.00;5001412;28;20034;-81
2022/11/28 08:56:05;;;;;;;18.70;10.55;;;;;;;5.23;79.03;97955.09;5000212;28;20064;-80
2022/11/28 08:58:31;;;;;;;17.83;10.65;;;;;;;5.29;77.90;97954.41;5000532;28;20066;-80
2022/11/28 09:00:56;;;;;;;19.60;10.77;;;;;;;5.27;77.76;97958.94;5001367;28;20112;-80
2022/11/28 09:03:22;;;;;;;18.77;9.90;;;;;;;5.23;77.32;97952.47;5000226;28;20111;-80
2022/11/28 09:05:48;;;;;;;18.35;9.82;;;;;;;5.28;77.84;97950.19;5001715;28;20048;-80
2022/11/28 09:08:16;;;;;;;16.90;9.60;;;;;;;5.41;78.68;97945.25;5000459;28;20112;-80
2022/11/28 09:10:44;;;;;;;14.65;9.40;;;;;;;5.41;77.26;97960.84;5001222;28;20038;-80
2022/11/28 09:13:11;;;;;;;15.75;9.27;;;;;;;5.37;77.11;97955.16;5001147;28;20054;-80
2022/11/28 09:15:45;;;;;;;18.00;9.20;;;;;;;5.47;77.32;97948.97;5002718;28;20038;-80
2022/11/28 09:18:13;;;;;;;16.20;8.45;;;;;;;5.44;76.22;97949.28;5006446;28;20065;-80
2022/11/28 09:20:40;;;;;;;15.65;8.80;;;;;;;5.47;76.26;97944.56;5002016;28;20053;-80
2022/11/28 09:23:08;;;;;;;16.63;8.48;;;;;;;5.58;76.71;97951.19;5000685;28;20651;-80
2022/11/28 09:25:36;;;;;;;15.02;8.40;;;;;;;5.58;76.58;97951.19;5002075;28;20038;-80
2022/11/28 09:28:02;;;;;;;18.20;9.75;;;;;;;5.62;76.27;97937.63;5002177;28;20084;-80
2022/11/28 09:30:28;;;;;;;17.08;8.88;;;;;;;5.65;75.42;97946.91;5000529;28;20054;-79
2022/11/28 09:32:53;;;;;;;14.93;8.93;;;;;;;5.69;75.95;97940.34;5001102;28;20614;-80
2022/11/28 09:35:19;;;;;;;19.80;9.70;;;;;;;5.76;75.55;97935.31;4999829;28;20029;-79
2022/11/28 09:37:44;;;;;;;15.27;8.82;;;;;;;5.80;75.15;97931.34;5000766;28;20041;-80
2022/11/28 09:40:26;;;;;;;15.45;8.77;;;;;;;5.78;75.04;97931.53;5001159;28;20037;-79
2022/11/28 09:42:52;;;;;;;19.40;9.35;;;;;;;5.79;74.88;97924.53;5000205;28;20088;-79
2022/11/28 09:45:23;;;;;;;20.92;10.27;;;;;;;5.80;75.12;97926.16;4998463;28;20482;-80
2022/11/28 09:48:15;;;;;;;18.92;10.50;;;;;;;5.69;75.53;97905.72;5000785;28;20091;-80
2022/11/28 09:50:42;;;;;;;16.60;9.45;;;;;;;5.80;75.36;97923.53;5007127;28;20555;-80
2022/11/28 09:53:40;;;;;;;15.43;8.98;;;;;;;5.86;75.49;97920.25;5001396;28;20033;-79
2022/11/28 09:56:21;;;;;;;23.13;11.85;;;;;;;5.89;75.35;97925.13;5004253;28;20030;-80
2022/11/28 09:58:56;;;;;;;20.90;11.63;;;;;;;6.02;75.80;97924.56;5004880;28;20042;-80
2022/11/28 10:01:42;;;;;;;17.10;8.75;;;;;;;6.17;75.39;97930.59;5005535;28;20118;-80
2022/11/28 10:04:36;;;;;;;14.48;8.57;;;;;;;6.22;74.48;97927.47;5006066;28;20042;-80
2022/11/28 10:07:16;;;;;;;17.15;9.02;;;;;;;6.32;75.67;97928.88;5004931;28;20501;-80
2022/11/28 10:10:06;;;;;;;15.40;8.07;;;;;;;6.28;73.09;97929.38;5002375;28;20068;-79
2022/11/28 10:13:17;;;;;;;14.95;7.68;;;;;;;6.25;73.46;97930.56;5006464;28;20482;-80
2022/11/28 10:15:42;;;;;;;;;;;;;;;6.33;73.94;97934.88;5006166;28;20064;-80
2022/11/28 10:18:47;;;;;;;13.85;7.60;;;;;;;6.34;73.81;97936.50;5003310;28;20545;-79
2022/11/28 10:21:30;;;;;;;13.65;8.20;;;;;;;6.36;73.09;97943.16;5000830;28;20493;-80
2022/11/28 10:24:36;;;;;;;13.30;8.00;;;;;;;6.44;74.07;97929.25;5004877;28;20034;-80
2022/11/28 10:27:04;;;;;;;14.45;8.25;;;;;;;6.52;74.21;97930.97;5001193;28;20041;-80
2022/11/28 10:29:56;;;;;;;12.13;7.85;;;;;;;6.57;71.91;97932.03;5002449;28;20125;-81
2022/11/28 10:32:34;;;;;;;15.90;7.82;;;;;;;6.65;73.38;97926.75;5005442;28;20033;-80
2022/11/28 10:35:10;;;;;;;15.60;8.25;;;;;;;6.75;75.29;97929.09;5018056;28;20643;-80
2022/11/28 10:37:37;;;;;;;14.18;8.20;;;;;;;6.60;72.91;97921.28;5003905;28;20041;-80
2022/11/28 10:40:28;;;;;;;16.50;8.55;;;;;;;6.56;71.68;97922.63;5004517;28;20091;-80
2022/11/28 10:43:30;;;;;;;14.00;8.48;;;;;;;6.58;72.67;97922.44;5003690;28;20026;-80
2022/11/28 10:46:57;;;;;;;13.65;8.32;;;;;;;6.52;71.60;97913.53;5001526;28;20548;-79
2022/11/28 10:49:39;;;;;;;17.17;8.25;;;;;;;6.54;71.27;97916.78;5004636;28;20038;-80
2022/11/28 10:52:25;;;;;;;14.20;8.65;;;;;;;6.67;72.65;97922.19;5001643;28;20033;-80
2022/11/28 10:55:32;;;;;;;14.18;8.60;;;;;;;6.71;71.42;97912.19;5004860;28;20088;-80
2022/11/28 10:58:20;;;;;;;14.80;8.55;;;;;;;6.81;74.32;97922.38;5004600;28;20049;-81
2022/11/28 11:00:49;;;;;;;12.70;8.15;;;;;;;6.86;72.53;97925.25;5005296;28;20434;-80
2022/11/28 11:03:27;;;;;;;17.70;9.23;;;;;;;6.96;73.91;97938.81;5001403;28;20113;-80
2022/11/28 11:05:53;;;;;;;15.85;8.63;;;;;;;6.87;70.85;97932.88;5003673;28;20046;-79
2022/11/28 11:08:33;;;;;;;14.82;8.35;;;;;;;6.82;70.55;97935.22;5005867;28;20026;-80
2022/11/28 11:11:51;;;;;;;13.80;8.20;;;;;;;6.84;70.93;97938.47;5002207;28;20037;-80
2022/11/28 11:14:33;;;;;;;14.60;8.95;;;;;;;6.90;71.81;97927.31;4986113;28;20545;-80
2022/11/28 11:16:59;;;;;;;17.58;9.55;;;;;;;6.82;70.94;97934.41;5004066;28;20057;-80
2022/11/28 11:19:36;;;;;;;16.00;9.18;;;;;;;6.85;72.34;97928.84;5003260;28;20030;-80
2022/11/28 11:22:22;;;;;;;18.40;9.80;;;;;;;6.96;71.69;97917.97;5003623;28;20038;-80
2022/11/28 11:25:13;;;;;;;15.38;9.10;;;;;;;6.90;70.41;97926.50;5001224;28;20482;-80
2022/11/28 11:27:53;;;;;;;17.17;9.50;;;;;;;6.81;70.93;97914.53;5003102;28;20038;-80
2022/11/28 11:30:37;;;;;;;16.20;10.47;;;;;;;6.80;71.35;97908.53;5002368;28;20047;-80
2022/11/28 11:33:12;;;;;;;17.90;9.35;;;;;;;6.76;71.20;97903.84;5003345;28;20861;-80
2022/11/28 11:35:46;;;;;;;16.65;10.40;;;;;;;6.72;70.91;97890.38;5002158;28;20446;-80
2022/11/28 11:38:19;;;;;;;15.90;9.05;;;;;;;6.80;71.54;97898.09;5001779;28;20069;-80
2022/11/28 11:40:47;;;;;;;14.65;9.38;;;;;;;6.89;71.33;97888.38;5003090;28;20125;-80
2022/11/28 11:43:30;;;;;;;16.27;9.43;;;;;;;7.05;70.87;97893.41;5002861;28;20116;-80
2022/11/28 11:46:09;;;;;;;18.10;8.20;;;;;;;7.05;70.60;97892.59;4999913;28;20034;-81
2022/11/28 11:48:38;;;;;;;15.32;8.70;;;;;;;6.94;70.27;97880.81;5001274;28;20085;-80
2022/11/28 11:51:05;;;;;;;17.27;9.98;;;;;;;7.10;69.94;97891.06;5001690;28;20030;-80
2022/11/28 11:53:30;;;;;;;16.23;9.10;;;;;;;7.16;70.71;97895.53;5017914;28;20030;-80
2022/11/28 11:56:02;;;;;;;18.60;9.75;;;;;;;7.22;70.24;97900.03;5003527;28;20116;-81
2022/11/28 11:58:40;;;;;;;16.30;9.27;;;;;;;7.28;70.15;97897.69;5001951;28;20100;-81
2022/11/28 12:01:06;;;;;;;15.63;9.18;;;;;;;7.37;70.26;97901.78;5001890;28;20081;-80